Flight Track Log - Related Links

Times and Time Zones

All times are in EDT time to prevent confusion due to time zone crossing. See the N858AP flight status page for this flight to view local times or setup timezone preferences in your user account.


Time Position Orientation Groundspeed Altitude Reporting Facility
EDT Latitude Longitude Course Direction KTS MPH feet Rate Location/Type
Sat 11:25:25 AM 63.8167 -68.5667 90° East 130 150 1,400  Level Montreal Center
Sat 11:30:25 AM 63.8167 -68.3333 36° Northeast 190 219 5,000 700 Climbing Montreal Center
Sat 11:31:25 AM 63.8667 -68.2500 66° East 190 219 5,600 850 Climbing Montreal Center
Sat 11:32:25 AM 63.8833 -68.1667 66° East 150 173 6,700 950 Climbing Montreal Center
Sat 11:33:25 AM 63.9000 -68.0833 108° East 140 161 7,500 800 Climbing Montreal Center
Sat 11:34:25 AM 63.8833 -67.9667 90° East 140 161 8,300 700 Climbing Montreal Center
Sat 11:35:25 AM 63.8833 -67.9000 72° East 140 161 8,900 600 Climbing Montreal Center
Sat 11:36:25 AM 63.9000 -67.7833 114° Southeast 140 161 9,500 550 Climbing Montreal Center
Sat 11:37:25 AM 63.8833 -67.7000 90° East 150 173 10,000 500 Climbing Montreal Center
Sat 11:38:25 AM 63.8833 -67.6333 72° East 150 173 10,500 500 Climbing Montreal Center
Sat 11:39:25 AM 63.9000 -67.5167 108° East 150 173 11,000 250 Climbing Montreal Center
Sat 11:40:25 AM 63.8833 -67.4000 72° East 170 196 11,000  Level Montreal Center
Sat 11:41:25 AM 63.9000 -67.2833 90° East 180 207 11,000  Level Montreal Center
Sat 11:42:25 AM 63.9000 -67.1667 108° East 190 219 11,000  Level Montreal Center
Sat 11:43:25 AM 63.8833 -67.0500 72° East 190 219 11,000  Level Montreal Center
Sat 11:44:25 AM 63.9000 -66.9333 72° East 190 219 11,000  Level Montreal Center
Sat 11:45:25 AM 63.9167 -66.8167 60° Northeast 200 230 11,000  Level Montreal Center
Sat 11:46:25 AM 63.9500 -66.6833 90° East 200 230 11,000  Level Montreal Center
Sat 11:47:25 AM 63.9500 -66.5667 57° Northeast 200 230 11,000  Level Montreal Center
Sat 11:48:25 AM 63.9833 -66.4500 60° Northeast 200 230 11,000  Level Montreal Center
Sat 11:49:25 AM 64.0167 -66.3167 65° Northeast 200 230 11,000  Level Montreal Center
Sat 11:50:25 AM 64.0333 -66.2333 76° East 200 230 11,000  Level Montreal Center
Sat 11:51:25 AM 64.0500 -66.0833 65° Northeast 210 242 11,000  Level Montreal Center
Sat 11:52:25 AM 64.0667 -66.0000 60° Northeast 210 242 11,000  Level Montreal Center
Sat 11:53:25 AM 64.1000 -65.8667 72° East 210 242 11,000  Level Montreal Center
Sat 11:54:25 AM 64.1167 -65.7500 60° Northeast 210 242 11,000  Level Montreal Center
Sat 11:55:25 AM 64.1500 -65.6167 90° East 210 242 11,000  Level Montreal Center
Sat 11:56:25 AM 64.1500 -65.5000 57° Northeast 210 242 11,000  Level Montreal Center
Sat 11:57:25 AM 64.1833 -65.3833 74° East 210 242 11,000  Level Montreal Center
Sat 11:58:25 AM 64.2000 -65.2500 57° Northeast 210 242 11,000  Level Montreal Center
Sat 11:59:25 AM 64.2333 -65.1333 74° East 210 242 11,000  Level Montreal Center
Sat 12:00:25 PM 64.2500 -65.0000 72° East 210 242 11,000  Level Montreal Center
Sat 12:01:25 PM 64.2667 -64.8833 74° East 210 242 11,000  Level Montreal Center
Sat 12:02:25 PM 64.2833 -64.7500 57° Northeast 210 242 11,000  Level Montreal Center
Sat 12:03:25 PM 64.3167 -64.6333 74° East 210 242 11,000  Level Montreal Center
Sat 12:04:25 PM 64.3333 -64.5000 72° East 210 242 11,000  Level Montreal Center
Sat 12:05:25 PM 64.3500 -64.3833 74° East 200 230 11,000  Level Montreal Center
Sat 12:06:25 PM 64.3667 -64.2500 56° Northeast 200 230 11,000  Level Montreal Center
Sat 12:07:25 PM 64.4000 -64.1333 74° East 210 242 11,000  Level Montreal Center
Sat 12:08:25 PM 64.4167 -64.0000 74° East 200 230 11,000  Level Montreal Center
Sat 12:09:25 PM 64.4333 -63.8667 72° East 210 242 11,000  Level Montreal Center
Sat 12:10:24 PM 64.4500 -63.7500 47° Northeast 200 230 11,000  Level Montreal Center
Sat 12:11:24 PM 64.4833 -63.6667 74° East 210 242 11,000  Level Montreal Center
Sat 12:12:25 PM 64.5000 -63.5333 74° East 200 230 11,000  Level Montreal Center
Sat 12:13:24 PM 64.5167 -63.4000 72° East 200 230 11,000  Level Montreal Center
Sat 12:14:24 PM 64.5333 -63.2833 74° East 200 230 11,000  Level Montreal Center
Sat 12:15:25 PM 64.5500 -63.1500 74° East 210 242 11,000  Level Montreal Center
Sat 12:16:24 PM 64.5667 -63.0167 56° Northeast 200 230 11,000  Level Montreal Center
Sat 12:17:24 PM 64.6000 -62.9000 69° East 200 230 11,000  Level Montreal Center
Sat 12:18:24 PM 64.6167 -62.8000 75° East 210 242 11,000  Level Montreal Center
Sat 12:19:24 PM 64.6333 -62.6500 74° East 200 230 11,000  Level Montreal Center
Sat 12:20:24 PM 64.6500 -62.5167 74° East 210 242 11,000  Level Montreal Center
Sat 12:21:24 PM 64.6667 -62.3833 47° Northeast 210 242 11,000  Level Montreal Center
Sat 12:22:24 PM 64.7000 -62.3000 78° East 210 242 11,000  Level Montreal Center
Sat 12:23:24 PM 64.7167 -62.1167 71° East 210 242 11,000  Level Montreal Center
Sat 12:24:24 PM 64.7333 -62.0000 74° East 210 242 11,000  Level Montreal Center
Sat 12:25:24 PM 64.7500 -61.8667 74° East 210 242 11,000  Level Montreal Center
Sat 12:26:24 PM 64.7667 -61.7333 71° East 240 276 11,000  Level Montreal Center
Sat 12:27:24 PM 64.7833 -61.6167 60° Northeast 220 253 11,000  Level Montreal Center
Sat 12:28:24 PM 64.8167 -61.4833 74° East 220 253 11,000  Level Montreal Center
Sat 12:29:24 PM 64.8333 -61.3500 74° East 210 242 11,000  Level Montreal Center
Sat 12:30:24 PM 64.8500 -61.2167 90° East 210 242 11,000  Level Montreal Center
Sat 12:31:37 PM 64.8500 -61.0500 59° Northeast 200 230 11,000  Level Montreal Center
Sat 12:32:37 PM 64.8833 -60.9167 52° Northeast 210 242 11,000  Level Montreal Center
Sat 12:33:37 PM 64.9167 -60.8167 90° East 210 242 11,000  Level Montreal Center
Sat 12:34:37 PM 64.9167 -60.6667 74° East 220 253 11,000  Level Montreal Center
Sat 12:35:37 PM 64.9333 -60.5333 59° Northeast 220 253 11,000  Level Montreal Center
Sat 12:36:37 PM 64.9667 -60.4000 73° East 210 242 11,000  Level Montreal Center
Sat 12:37:37 PM 64.9833 -60.2667 73° East 200 230 11,000  Level Montreal Center
Sat 12:38:37 PM 65.0000 -60.1333 90° East 220 253 11,000  Level Montreal Center
Sat 12:39:37 PM 65.0000 -60.0000 73° East 210 242 11,000  Level Montreal Center
Sat 12:40:37 PM 65.0167 -59.8667 40° Northeast 210 242 11,000  Level Montreal Center
Sat 12:41:37 PM 65.0667 -59.7667 73° East 210 242 11,000  Level Montreal Center
Sat 12:42:37 PM 65.0833 -59.6333 52° Northeast 210 242 11,000  Level Montreal Center
Sat 12:43:37 PM 65.1167 -59.5333 52° Northeast 220 253 11,000  Level Montreal Center
Sat 12:44:37 PM 65.1667 -59.3833 73° East 220 253 11,000  Level Montreal Center
Sat 12:45:37 PM 65.1833 -59.2500 40° Northeast 220 253 11,000  Level Montreal Center
Sat 12:46:37 PM 65.2167 -59.1833 59° Northeast 210 242 11,000  Level Montreal Center
Sat 12:54:32 PM 65.4357 -58.2906 60° Northeast  Level FlightAware Approximate
Sat 12:55:32 PM 65.4630 -58.1768 60° Northeast  Level FlightAware Approximate
Sat 12:56:32 PM 65.4902 -58.0627 60° Northeast  Level FlightAware Approximate
Sat 12:57:32 PM 65.5173 -57.9484 60° Northeast  Level FlightAware Approximate
Sat 12:58:32 PM 65.5444 -57.8339 60° Northeast  Level FlightAware Approximate
Sat 12:59:32 PM 65.5713 -57.7191 60° Northeast  Level FlightAware Approximate
Sat 01:00:32 PM 65.5982 -57.6041 61° Northeast  Level FlightAware Approximate
Sat 01:01:32 PM 65.6250 -57.4888 61° Northeast  Level FlightAware Approximate
Sat 01:02:32 PM 65.6516 -57.3733 61° Northeast  Level FlightAware Approximate
Sat 01:03:32 PM 65.6783 -57.2576 61° Northeast  Level FlightAware Approximate
Sat 01:04:32 PM 65.7048 -57.1416 61° Northeast  Level FlightAware Approximate
Sat 01:05:32 PM 65.7312 -57.0254 61° Northeast  Level FlightAware Approximate
Sat 01:06:32 PM 65.7575 -56.9090 61° Northeast  Level FlightAware Approximate
Sat 01:07:32 PM 65.7838 -56.7923 61° Northeast  Level FlightAware Approximate
Sat 01:08:32 PM 65.8099 -56.6754 61° Northeast  Level FlightAware Approximate
Sat 01:09:32 PM 65.8360 -56.5582 62° Northeast  Level FlightAware Approximate
Sat 01:10:32 PM 65.8620 -56.4408 62° Northeast  Level FlightAware Approximate
Sat 01:11:32 PM 65.8878 -56.3232 62° Northeast  Level FlightAware Approximate
Sat 01:12:32 PM 65.9137 -56.2054 62° Northeast  Level FlightAware Approximate
Sat 01:13:32 PM 65.9394 -56.0873 62° Northeast  Level FlightAware Approximate
Sat 01:14:32 PM 65.9650 -55.9689 62° Northeast  Level FlightAware Approximate
Sat 01:15:32 PM 65.9905 -55.8503 62° Northeast  Level FlightAware Approximate
Sat 01:16:32 PM 66.0159 -55.7315 62° Northeast  Level FlightAware Approximate
Sat 01:17:32 PM 66.0413 -55.6125 62° Northeast  Level FlightAware Approximate
Sat 01:18:32 PM 66.0665 -55.4932 63° Northeast  Level FlightAware Approximate
Sat 01:19:32 PM 66.0917 -55.3737 63° Northeast  Level FlightAware Approximate
Sat 01:20:32 PM 66.1168 -55.2539 63° Northeast  Level FlightAware Approximate
Sat 01:21:32 PM 66.1417 -55.1339 63° Northeast  Level FlightAware Approximate
Sat 01:22:32 PM 66.1666 -55.0137 63° Northeast  Level FlightAware Approximate
Sat 01:23:32 PM 66.1914 -54.8932 63° Northeast  Level FlightAware Approximate
Sat 01:24:32 PM 66.2161 -54.7725 63° Northeast  Level FlightAware Approximate
Sat 01:25:32 PM 66.2407 -54.6516 63° Northeast  Level FlightAware Approximate
Sat 01:26:32 PM 66.2652 -54.5304 63° Northeast  Level FlightAware Approximate
Sat 01:27:32 PM 66.2896 -54.4090 64° Northeast  Level FlightAware Approximate
Sat 01:28:32 PM 66.3139 -54.2873 64° Northeast  Level FlightAware Approximate
Sat 01:29:32 PM 66.3381 -54.1655 64° Northeast  Level FlightAware Approximate
Sat 01:30:32 PM 66.3622 -54.0434 64° Northeast  Level FlightAware Approximate
Sat 01:31:32 PM 66.3863 -53.9210 64° Northeast  Level FlightAware Approximate
Sat 01:32:32 PM 66.4102 -53.7984 64° Northeast  Level FlightAware Approximate
Sat 01:33:32 PM 66.4340 -53.6756 64° Northeast  Level FlightAware Approximate
Sat 01:34:32 PM 66.4578 -53.5525 64° Northeast  Level FlightAware Approximate
Sat 01:35:32 PM 66.4814 -53.4292 64° Northeast  Level FlightAware Approximate
Sat 01:36:32 PM 66.5050 -53.3057 65° Northeast  Level FlightAware Approximate
Sat 01:37:32 PM 66.5284 -53.1820 65° Northeast  Level FlightAware Approximate
Sat 01:38:32 PM 66.5518 -53.0580 65° Northeast  Level FlightAware Approximate
Sat 01:39:32 PM 66.5750 -52.9338 65° Northeast  Level FlightAware Approximate
Sat 01:40:32 PM 66.5982 -52.8093 65° Northeast  Level FlightAware Approximate
Sat 01:41:32 PM 66.6212 -52.6846 65° Northeast  Level FlightAware Approximate
Sat 01:42:32 PM 66.6442 -52.5597 59° Northeast  Level FlightAware Approximate
Sat 01:43:32 PM 66.6715 -52.4428 65° Northeast  Level FlightAware Approximate
Sat 01:44:32 PM 66.6948 -52.3180 66° East  Level FlightAware Approximate
Sat 01:45:32 PM 66.7170 -52.1919 66° East  Level FlightAware Approximate
Sat 01:46:32 PM 66.7392 -52.0656 67° East  Level FlightAware Approximate
Sat 01:47:32 PM 66.7605 -51.9382 66° East  Level FlightAware Approximate
Sat 01:48:32 PM 66.7825 -51.8115 66° East  Level FlightAware Approximate
Sat 01:49:32 PM 66.8044 -51.6846 66° East  Level FlightAware Approximate
Sat 01:50:32 PM 66.8262 -51.5575 67° East  Level FlightAware Approximate
Sat 01:51:32 PM 66.8479 -51.4301 70° East  Level FlightAware Approximate
Sat 01:52:32 PM 66.8667 -51.2997 66° East  Level FlightAware Approximate
Sat 01:53:32 PM 66.8887 -51.1724 66° East  Level FlightAware Approximate
Sat 01:54:32 PM 66.9107 -51.0450 66° East  Level FlightAware Approximate
Sat 01:55:32 PM 66.9325 -50.9173 67° East  Level FlightAware Approximate
Sat 01:56:32 PM 66.9542 -50.7894 67° East  Level FlightAware Approximate
Sat 01:57:32 PM 66.9759 -50.6613 345° North  Level FlightAware Approximate
Sat 01:58:32 PM 67.0287 -50.6973 185° South  Level Estimated
Sat 01:59:32 PM 67.0167 -50.7000 86° East  Level FlightAware Approximate
Sat 02:00:32 PM 67.0205 -50.5605 266° West  Level Estimated
Sat 02:01:32 PM 67.0167 -50.7000 86° East  Level FlightAware Approximate
Sat 02:02:32 PM 67.0205 -50.5605 266° West  Level Estimated
Sat 02:03:32 PM 67.0167 -50.7000 86° East  Level FlightAware Approximate
Sat 02:04:32 PM 67.0205 -50.5605 266° West  Level Estimated
Sat 02:05:32 PM 67.0167 -50.7000 86° East  Level FlightAware Approximate
Sat 02:06:32 PM 67.0205 -50.5605 266° West  Level Estimated
Sat 02:07:32 PM 67.0167 -50.7000 86° East  Level FlightAware Approximate
Sat 02:08:32 PM 67.0205 -50.5605 266° West  Level Estimated
Sat 02:09:32 PM 67.0167 -50.7000 86° East  Level FlightAware Approximate
Sat 02:10:32 PM 67.0205 -50.5605 86° East  Level Estimated

Login

Don't have an account? Register now (free) for customized features, flight alerts, and more!